createdAt,value
2022-12-15T00:00:38.406Z,101279.47
2022-12-15T00:03:28.759Z,101284.97
2022-12-15T00:06:17.353Z,101288.25
2022-12-15T00:09:08.540Z,101287.94
2022-12-15T00:12:01.096Z,101288.78
2022-12-15T00:14:49.443Z,101295.31
2022-12-15T00:17:37.656Z,101295.63
2022-12-15T00:20:26.177Z,101296.19
2022-12-15T00:23:14.546Z,101295.63
2022-12-15T00:26:05.146Z,101299.47
2022-12-15T00:28:53.631Z,101302.44
2022-12-15T00:31:42.118Z,101306.59
2022-12-15T00:34:30.991Z,101310.66
2022-12-15T00:37:19.322Z,101320.81
2022-12-15T00:40:00.792Z,101322.47
2022-12-15T00:42:31.267Z,101331.53
2022-12-15T00:45:02.169Z,101331.53
2022-12-15T00:47:36.341Z,101336.78
2022-12-15T00:50:25.255Z,101344.44
2022-12-15T00:53:13.612Z,101346.06
2022-12-15T00:56:03.041Z,101355.94
2022-12-15T00:58:51.560Z,101356.75
2022-12-15T01:01:40.381Z,101360.88
2022-12-15T01:04:29.025Z,101366.09
2022-12-15T01:07:17.437Z,101373.25
2022-12-15T01:10:05.890Z,101376.25
2022-12-15T01:12:54.432Z,101382.00
2022-12-15T01:15:42.826Z,101387.78
2022-12-15T01:18:31.174Z,101387.22
2022-12-15T01:21:07.107Z,101386.69
2022-12-15T01:23:38.776Z,101391.03
2022-12-15T01:26:10.073Z,101397.13
2022-12-15T01:28:40.222Z,101407.00
2022-12-15T01:31:14.496Z,101405.31
2022-12-15T01:33:45.819Z,101407.78
2022-12-15T01:36:16.527Z,101413.84
2022-12-15T01:38:52.275Z,101419.34
2022-12-15T01:41:24.566Z,101421.25
2022-12-15T01:43:55.015Z,101420.69
2022-12-15T01:46:27.229Z,101423.97
2022-12-15T01:49:14.036Z,101417.69
2022-12-15T01:51:49.610Z,101428.94
2022-12-15T01:54:50.892Z,101418.50
2022-12-15T01:57:27.782Z,101419.59
2022-12-15T02:00:04.205Z,101427.28
2022-12-15T02:02:40.407Z,101423.13
2022-12-15T02:05:12.183Z,101426.72
2022-12-15T02:07:41.932Z,101425.06
2022-12-15T02:10:13.424Z,101425.06
2022-12-15T02:12:52.359Z,101430.00
2022-12-15T02:15:30.856Z,101412.97
2022-12-15T02:18:04.221Z,101416.81
2022-12-15T02:20:45.227Z,101425.59
2022-12-15T02:23:36.363Z,101412.97
2022-12-15T02:26:15.081Z,101407.47
2022-12-15T02:29:02.995Z,101410.78
2022-12-15T02:32:03.549Z,101398.69
2022-12-15T02:35:01.361Z,101400.03
2022-12-15T02:37:37.632Z,101398.38
2022-12-15T02:40:11.419Z,101391.25
2022-12-15T02:43:03.846Z,101387.66
2022-12-15T02:45:42.968Z,101390.94
2022-12-15T02:48:39.208Z,101391.47
2022-12-15T02:51:45.424Z,101386.28
2022-12-15T02:54:25.787Z,101389.53
2022-12-15T02:57:34.469Z,101385.69
2022-12-15T03:00:09.698Z,101381.03
2022-12-15T03:02:44.852Z,101385.69
2022-12-15T03:05:16.552Z,101389.84
2022-12-15T03:07:49.827Z,101386.00
2022-12-15T03:10:21.085Z,101387.91
2022-12-15T03:12:52.467Z,101389.25
2022-12-15T03:15:22.322Z,101381.84
2022-12-15T03:17:52.490Z,101378.25
2022-12-15T03:20:22.942Z,101382.66
2022-12-15T03:22:53.089Z,101375.78
2022-12-15T03:25:23.103Z,101370.00
2022-12-15T03:27:53.108Z,101364.50
2022-12-15T03:30:23.128Z,101363.69
2022-12-15T03:32:53.424Z,101360.63
2022-12-15T03:35:23.624Z,101362.28
2022-12-15T03:37:53.768Z,101363.09
2022-12-15T03:40:23.778Z,101358.44
2022-12-15T03:42:53.806Z,101356.50
2022-12-15T03:45:29.552Z,101352.09
2022-12-15T03:48:00.377Z,101342.75
2022-12-15T03:50:31.896Z,101344.38
2022-12-15T03:53:03.117Z,101350.72
2022-12-15T03:55:33.542Z,101343.28
2022-12-15T03:58:04.995Z,101337.78
2022-12-15T04:00:35.918Z,101336.41
2022-12-15T04:03:06.427Z,101332.84
2022-12-15T04:05:37.576Z,101334.47
2022-12-15T04:08:07.996Z,101325.13
2022-12-15T04:10:38.630Z,101329.50
2022-12-15T04:13:12.074Z,101317.41
2022-12-15T04:15:43.118Z,101308.88
2022-12-15T04:18:14.434Z,101303.38
2022-12-15T04:20:44.783Z,101308.88
2022-12-15T04:23:14.953Z,101296.78
2022-12-15T04:26:03.242Z,101290.47
2022-12-15T04:28:51.590Z,101291.81
2022-12-15T04:31:48.606Z,101278.91
2022-12-15T04:34:46.112Z,101273.09
2022-12-15T04:37:35.836Z,101269.25
2022-12-15T04:40:26.563Z,101243.97
2022-12-15T04:43:15.123Z,101245.63
2022-12-15T04:46:03.488Z,101247.25
2022-12-15T04:48:52.624Z,101243.41
2022-12-15T04:51:41.136Z,101229.13
2022-12-15T04:54:29.559Z,101220.56
2022-12-15T04:57:18.319Z,101213.97
2022-12-15T05:00:06.786Z,101215.06
2022-12-15T05:02:55.351Z,101208.19
2022-12-15T05:05:43.811Z,101193.34
2022-12-15T05:08:32.449Z,101194.16
2022-12-15T05:11:21.288Z,101187.84
2022-12-15T05:14:09.658Z,101180.09
2022-12-15T05:16:58.065Z,101187.53
2022-12-15T05:19:46.571Z,101173.81
2022-12-15T05:22:34.843Z,101170.47
2022-12-15T05:25:23.482Z,101163.03
2022-12-15T05:28:12.268Z,101155.63
2022-12-15T05:31:00.963Z,101148.19
2022-12-15T05:33:31.453Z,101147.06
2022-12-15T05:36:01.889Z,101140.47
2022-12-15T05:38:32.260Z,101131.91
2022-12-15T05:41:02.698Z,101125.59
2022-12-15T05:43:33.171Z,101117.88
2022-12-15T05:46:07.454Z,101111.84
2022-12-15T05:48:37.607Z,101101.38
2022-12-15T05:51:12.327Z,101085.41
2022-12-15T05:53:44.279Z,101091.19
2022-12-15T05:56:16.760Z,101084.06
2022-12-15T05:58:47.091Z,101089.81
2022-12-15T06:01:19.872Z,101073.31
2022-12-15T06:03:50.030Z,101063.94
2022-12-15T06:06:20.544Z,101058.44
2022-12-15T06:08:50.847Z,101051.84
2022-12-15T06:11:22.735Z,101039.69
2022-12-15T06:13:52.925Z,101031.44
2022-12-15T06:16:25.748Z,101020.44
2022-12-15T06:18:58.911Z,101017.44
2022-12-15T06:21:35.399Z,101014.69
2022-12-15T06:24:07.240Z,101009.97
2022-12-15T06:26:42.153Z,101009.38
2022-12-15T06:29:14.129Z,101000.03
2022-12-15T06:31:44.932Z,100989.03
2022-12-15T06:34:17.968Z,100982.50
2022-12-15T06:36:48.688Z,100983.53
2022-12-15T06:39:19.134Z,100984.38
2022-12-15T06:41:49.783Z,100981.63
2022-12-15T06:44:20.134Z,100964.81
2022-12-15T06:46:50.393Z,100969.47
2022-12-15T06:49:20.680Z,100968.06
2022-12-15T06:51:52.502Z,100946.06
2022-12-15T06:54:22.682Z,100948.81
2022-12-15T06:56:53.020Z,100948.81
2022-12-15T06:59:23.383Z,100949.34
2022-12-15T07:01:53.783Z,100938.34
2022-12-15T07:04:24.106Z,100937.53
2022-12-15T07:06:54.209Z,100933.41
2022-12-15T07:09:24.374Z,100938.91
2022-12-15T07:11:55.341Z,100923.19
2022-12-15T07:14:26.151Z,100926.75
2022-12-15T07:16:56.374Z,100920.44
2022-12-15T07:19:26.654Z,100914.63
2022-12-15T07:21:58.752Z,100914.63
2022-12-15T07:24:28.861Z,100913.00
2022-12-15T07:26:59.150Z,100912.72
2022-12-15T07:29:29.277Z,100918.22
2022-12-15T07:31:59.473Z,100906.41
2022-12-15T07:34:29.712Z,100909.66
2022-12-15T07:36:59.826Z,100897.53
2022-12-15T07:39:30.118Z,100900.28
2022-12-15T07:42:00.396Z,100894.00
2022-12-15T07:44:31.309Z,100886.03
2022-12-15T07:47:01.461Z,100878.28
2022-12-15T07:49:31.483Z,100882.69
2022-12-15T07:52:01.441Z,100878.81
2022-12-15T07:54:33.520Z,100876.06
2022-12-15T07:57:04.954Z,100865.06
2022-12-15T07:59:34.887Z,100867.50
2022-12-15T08:02:06.683Z,100868.66
2022-12-15T08:04:36.907Z,100849.41
2022-12-15T08:07:07.223Z,100854.88
2022-12-15T08:09:37.645Z,100857.34
2022-12-15T08:12:08.050Z,100851.00
2022-12-15T08:14:39.250Z,100849.88
2022-12-15T08:17:09.473Z,100847.13
2022-12-15T08:19:39.862Z,100836.13
2022-12-15T08:22:10.113Z,100846.84
2022-12-15T08:24:40.549Z,100836.66
2022-12-15T08:27:11.046Z,100839.41
2022-12-15T08:29:56.096Z,100840.50
2022-12-15T08:32:26.783Z,100842.16
2022-12-15T08:34:56.908Z,100830.34
2022-12-15T08:37:26.921Z,100824.84
2022-12-15T08:39:57.024Z,100829.75
2022-12-15T08:42:27.172Z,100825.34
2022-12-15T08:44:57.399Z,100819.84
2022-12-15T08:47:27.624Z,100823.41
2022-12-15T08:49:57.978Z,100825.34
2022-12-15T08:52:28.161Z,100822.28
2022-12-15T08:54:58.260Z,100820.38
2022-12-15T08:57:28.424Z,100827.00
2022-12-15T08:59:58.759Z,100826.69
2022-12-15T09:02:30.227Z,100825.56
2022-12-15T09:05:00.110Z,100830.22
2022-12-15T09:07:30.622Z,100830.22
2022-12-15T09:10:00.739Z,100825.56
2022-12-15T09:12:30.707Z,100823.59
2022-12-15T09:15:00.740Z,100822.81
2022-12-15T09:17:30.701Z,100828.00
2022-12-15T09:20:01.100Z,100831.84
2022-12-15T09:22:31.268Z,100831.84
2022-12-15T09:25:01.507Z,100837.38
2022-12-15T09:27:32.748Z,100835.72
2022-12-15T09:30:03.150Z,100836.56
2022-12-15T09:32:34.479Z,100847.25
2022-12-15T09:35:04.202Z,100840.94
2022-12-15T09:37:34.696Z,100842.88
2022-12-15T09:40:06.112Z,100846.13
2022-12-15T09:42:36.110Z,100842.25
2022-12-15T09:45:22.494Z,100844.22
2022-12-15T09:48:03.587Z,100851.63
2022-12-15T09:50:44.909Z,100856.03
2022-12-15T09:53:52.908Z,100857.66
2022-12-15T09:56:26.013Z,100860.72
2022-12-15T09:59:17.915Z,100860.41
2022-12-15T10:02:04.082Z,100860.41
2022-12-15T10:04:55.379Z,100865.91
2022-12-15T10:07:37.004Z,100868.97
2022-12-15T10:10:37.154Z,100858.56
2022-12-15T10:13:25.631Z,100878.03
2022-12-15T10:16:23.930Z,100881.59
2022-12-15T10:19:11.412Z,100889.03
2022-12-15T10:21:42.173Z,100893.41
2022-12-15T10:24:37.565Z,100894.53
2022-12-15T10:27:29.600Z,100899.44
2022-12-15T10:30:04.136Z,100900.25
2022-12-15T10:32:39.342Z,100900.25
2022-12-15T10:35:37.124Z,100903.00
2022-12-15T10:38:16.519Z,100910.97
2022-12-15T10:40:50.314Z,100912.88
2022-12-15T10:43:30.801Z,100915.34
2022-12-15T10:46:17.645Z,100916.47
2022-12-15T10:49:00.009Z,100913.72
2022-12-15T10:51:35.673Z,100924.41
2022-12-15T10:54:17.537Z,100916.47
2022-12-15T10:57:05.311Z,100914.81
2022-12-15T10:59:37.919Z,100913.72
2022-12-15T11:02:25.135Z,100921.97
2022-12-15T11:05:04.594Z,100919.50
2022-12-15T11:07:59.788Z,100921.97
2022-12-15T11:10:55.547Z,100927.97
2022-12-15T11:13:31.319Z,100937.34
2022-12-15T11:16:21.923Z,100938.47
2022-12-15T11:19:03.534Z,100939.28
2022-12-15T11:21:37.592Z,100945.88
2022-12-15T11:24:14.161Z,100945.59
2022-12-15T11:26:55.982Z,100943.97
2022-12-15T11:29:26.116Z,100950.28
2022-12-15T11:32:03.112Z,100956.41
2022-12-15T11:34:41.741Z,100962.72
2022-12-15T11:40:42.843Z,100963.22
2022-12-15T11:43:40.652Z,100966.78
2022-12-15T11:46:28.807Z,100970.16
2022-12-15T11:49:01.991Z,100980.84
2022-12-15T11:51:52.030Z,100977.28
2022-12-15T11:54:44.787Z,100985.53
2022-12-15T11:57:18.576Z,100991.03
2022-12-15T12:00:21.927Z,100992.97
2022-12-15T12:03:31.097Z,101003.66
2022-12-15T12:06:17.397Z,100998.78
2022-12-15T12:09:16.523Z,101014.97
2022-12-15T12:11:58.055Z,101017.41
2022-12-15T12:14:36.994Z,101021.81
2022-12-15T12:17:39.095Z,101017.13
2022-12-15T12:20:22.883Z,101023.44
2022-12-15T12:23:07.689Z,101020.41
2022-12-15T12:26:02.751Z,101026.50
2022-12-15T12:28:54.930Z,101032.81
2022-12-15T12:31:43.463Z,101032.00
2022-12-15T12:34:51.391Z,101029.25
2022-12-15T12:37:46.729Z,101033.34
2022-12-15T12:40:27.347Z,101035.28
2022-12-15T12:43:01.662Z,101039.75
2022-12-15T12:45:44.671Z,101042.19
2022-12-15T12:48:28.798Z,101046.06
2022-12-15T12:51:44.173Z,101041.38
2022-12-15T12:54:35.822Z,101048.53
2022-12-15T12:57:14.512Z,101046.56
2022-12-15T12:59:59.640Z,101056.25
2022-12-15T13:02:29.889Z,101054.03
2022-12-15T13:05:21.570Z,101053.50
2022-12-15T13:08:10.499Z,101058.69
2022-12-15T13:10:41.760Z,101051.28
2022-12-15T13:13:30.649Z,101056.25
2022-12-15T13:16:26.779Z,101051.88
2022-12-15T13:19:10.805Z,101046.56
2022-12-15T13:21:48.585Z,101049.41
2022-12-15T13:24:37.439Z,101056.84
2022-12-15T13:30:32.375Z,101054.91
2022-12-15T13:33:43.096Z,101054.09
2022-12-15T13:37:02.693Z,101048.69
2022-12-15T13:39:56.534Z,101055.88
2022-12-15T13:49:22.357Z,101065.09
2022-12-15T13:53:16.295Z,101066.25
2022-12-15T13:55:38.469Z,101073.06
2022-12-15T13:58:33.948Z,101081.25
2022-12-15T14:07:18.776Z,101087.91
2022-12-15T14:10:05.209Z,101082.94
2022-12-15T14:12:47.111Z,101091.44
2022-12-15T14:15:33.955Z,101097.75
2022-12-15T14:24:54.939Z,101095.94
2022-12-15T14:27:45.529Z,101095.94
2022-12-15T14:30:54.461Z,101095.94
2022-12-15T14:33:55.443Z,101104.34
2022-12-15T14:39:50.221Z,101101.91
2022-12-15T14:42:41.040Z,101101.38
2022-12-15T14:45:39.937Z,101104.97
2022-12-15T14:48:41.482Z,101109.63
2022-12-15T14:51:33.615Z,101113.44
2022-12-15T14:54:49.342Z,101116.47
2022-12-15T14:57:38.352Z,101112.06
2022-12-15T15:00:47.717Z,101101.91
2022-12-15T15:03:12.307Z,100961.59
2022-12-15T15:03:31.965Z,101105.97
2022-12-15T15:06:38.086Z,101105.78
2022-12-15T15:09:44.297Z,101104.13
2022-12-15T15:12:27.783Z,101101.91
2022-12-15T15:15:15.472Z,101112.06
2022-12-15T15:17:55.888Z,101099.47
2022-12-15T15:20:49.961Z,101097.00
2022-12-15T15:23:22.540Z,101099.47
2022-12-15T15:26:20.382Z,101099.16
2022-12-15T15:28:52.280Z,101101.38
2022-12-15T15:31:41.413Z,101106.34
2022-12-15T15:34:13.663Z,101103.59
2022-12-15T15:36:45.528Z,101102.22
2022-12-15T15:39:19.236Z,101106.34
2022-12-15T15:41:50.720Z,101096.47
2022-12-15T15:44:21.727Z,101095.34
2022-12-15T15:46:55.622Z,101093.19
2022-12-15T15:49:27.849Z,101092.09
2022-12-15T15:52:00.304Z,101096.47
2022-12-15T15:54:38.441Z,101096.47
2022-12-15T15:57:13.219Z,101095.94
2022-12-15T15:59:46.388Z,101094.81
2022-12-15T16:02:18.966Z,101093.19
2022-12-15T16:04:50.492Z,101094.31
2022-12-15T16:07:31.911Z,101089.94
2022-12-15T16:10:02.990Z,101092.09
2022-12-15T16:12:43.206Z,101090.75
2022-12-15T16:15:25.396Z,101095.13
2022-12-15T16:17:57.643Z,101099.75
2022-12-15T16:20:31.342Z,101099.75
2022-12-15T16:23:10.168Z,101100.84
2022-12-15T16:25:50.621Z,101098.41
2022-12-15T16:28:24.185Z,101095.94
2022-12-15T16:30:55.426Z,101096.56
2022-12-15T16:33:25.862Z,101091.88
2022-12-15T16:35:56.689Z,101090.22
2022-12-15T16:38:34.243Z,101091.13
2022-12-15T16:41:09.541Z,101092.44
2022-12-15T16:43:46.013Z,101086.16
2022-12-15T16:46:18.670Z,101092.44
2022-12-15T16:48:49.274Z,101089.47
2022-12-15T16:51:44.560Z,101095.50
2022-12-15T16:54:34.177Z,101099.38
2022-12-15T16:57:04.714Z,101092.75
2022-12-15T16:59:35.942Z,101090.28
2022-12-15T17:02:24.706Z,101087.84
2022-12-15T17:04:57.433Z,101087.03
2022-12-15T17:07:30.581Z,101085.09
2022-12-15T17:10:01.309Z,101080.13
2022-12-15T17:12:32.375Z,101079.28
2022-12-15T17:15:04.677Z,101074.41
2022-12-15T17:17:34.861Z,101078.25
2022-12-15T17:20:29.244Z,101075.78
2022-12-15T17:23:04.258Z,101069.72
2022-12-15T17:28:34.971Z,101068.59
2022-12-15T17:31:05.769Z,101062.03
2022-12-15T17:33:37.973Z,101062.88
2022-12-15T17:36:19.024Z,101057.38
2022-12-15T17:38:52.472Z,101062.28
2022-12-15T17:41:50.221Z,101056.78
2022-12-15T17:44:36.345Z,101046.38
2022-12-15T17:47:09.658Z,101046.38
2022-12-15T17:49:40.331Z,101045.53
2022-12-15T17:52:27.198Z,101042.25
2022-12-15T17:54:58.250Z,101036.75
2022-12-15T17:57:28.955Z,101041.47
2022-12-15T17:59:59.264Z,101046.72
2022-12-15T18:02:29.733Z,101037.34
2022-12-15T18:05:00.264Z,101034.88
2022-12-15T18:07:30.344Z,101036.00
2022-12-15T18:10:00.585Z,101031.59
2022-12-15T18:12:31.313Z,101034.06
2022-12-15T18:15:02.637Z,101025.53
2022-12-15T18:17:33.502Z,101030.81
2022-12-15T18:20:06.870Z,101027.47
2022-12-15T18:22:37.129Z,101023.88
2022-12-15T18:25:17.024Z,101022.25
2022-12-15T18:27:48.286Z,101023.88
2022-12-15T18:30:21.046Z,101021.41
2022-12-15T18:32:51.969Z,101012.59
2022-12-15T18:35:25.612Z,101012.88
2022-12-15T18:37:55.887Z,101012.88
2022-12-15T18:40:30.397Z,101007.16
2022-12-15T18:43:00.610Z,100996.16
2022-12-15T18:45:31.015Z,100996.97
2022-12-15T18:48:01.105Z,101001.44
2022-12-15T18:50:31.308Z,100988.81
2022-12-15T18:53:04.453Z,100996.75
2022-12-15T18:55:34.962Z,100991.78
2022-12-15T18:58:05.174Z,100991.25
2022-12-15T19:00:36.626Z,100984.38
2022-12-15T19:03:07.059Z,100981.91
2022-12-15T19:05:39.156Z,100983.53
2022-12-15T19:08:15.749Z,100976.72
2022-12-15T19:10:53.482Z,100980.84
2022-12-15T19:13:30.695Z,100981.69
2022-12-15T19:16:02.594Z,100985.22
2022-12-15T19:18:51.322Z,100978.94
2022-12-15T19:21:50.644Z,100971.28
2022-12-15T19:24:48.079Z,100973.44
2022-12-15T19:27:25.371Z,100968.84
2022-12-15T19:29:58.847Z,100972.91
2022-12-15T19:32:29.200Z,100964.72
2022-12-15T19:34:59.489Z,100971.06
2022-12-15T19:37:32.408Z,100963.94
2022-12-15T19:40:04.078Z,100961.97
2022-12-15T19:42:37.814Z,100964.44
2022-12-15T19:45:25.421Z,100960.06
2022-12-15T19:47:56.234Z,100956.72
2022-12-15T19:50:32.665Z,100964.13
2022-12-15T19:53:05.263Z,100962.28
2022-12-15T19:55:38.809Z,100967.19
2022-12-15T19:58:32.377Z,100964.72
2022-12-15T20:01:10.129Z,100963.09
2022-12-15T20:03:40.795Z,100956.56
2022-12-15T20:06:27.108Z,100961.44
2022-12-15T20:08:59.158Z,100965.63
2022-12-15T20:11:32.721Z,100964.56
2022-12-15T20:14:04.212Z,100962.88
2022-12-15T20:16:34.580Z,100962.88
2022-12-15T20:19:04.895Z,100957.38
2022-12-15T20:21:40.880Z,100961.81
2022-12-15T20:24:17.677Z,100955.75
2022-12-15T20:26:48.894Z,100958.81
2022-12-15T20:29:27.886Z,100955.75
2022-12-15T20:32:00.168Z,100959.06
2022-12-15T20:34:30.441Z,100950.84
2022-12-15T20:37:00.734Z,100944.22
2022-12-15T20:39:32.421Z,100945.06
2022-12-15T20:42:02.740Z,100943.69
2022-12-15T20:44:32.772Z,100942.09
2022-12-15T20:47:04.044Z,100934.66
2022-12-15T20:49:34.451Z,100940.16
2022-12-15T20:52:05.961Z,100936.59
2022-12-15T20:54:36.101Z,100937.47
2022-12-15T20:57:06.558Z,100932.50
2022-12-15T20:59:36.560Z,100935.25
2022-12-15T21:02:22.082Z,100936.06
2022-12-15T21:04:53.341Z,100950.63
2022-12-15T21:07:23.534Z,100945.44
2022-12-15T21:09:54.025Z,100947.66
2022-12-15T21:12:28.159Z,100949.88
2022-12-15T21:14:58.337Z,100954.84
2022-12-15T21:17:29.033Z,100953.75
2022-12-15T21:19:59.370Z,100946.31
2022-12-15T21:22:30.693Z,100946.91
2022-12-15T21:25:02.754Z,100943.63
2022-12-15T21:27:33.170Z,100948.25
2022-12-15T21:30:03.321Z,100943.34
2022-12-15T21:32:33.349Z,100951.56
2022-12-15T21:35:03.274Z,100947.72
2022-12-15T21:37:33.577Z,100954.63
2022-12-15T21:40:03.948Z,100959.97
2022-12-15T21:42:37.903Z,100955.31
2022-12-15T21:45:22.175Z,100955.97
2022-12-15T21:48:11.817Z,100951.56
2022-12-15T21:50:44.543Z,100953.22
2022-12-15T21:53:19.058Z,100962.81
2022-12-15T21:55:49.666Z,100957.91
2022-12-15T21:58:23.164Z,100957.59
2022-12-15T22:00:53.817Z,100959.03
2022-12-15T22:03:24.368Z,100972.75
2022-12-15T22:05:54.478Z,100962.34
2022-12-15T22:08:25.376Z,100969.69
2022-12-15T22:10:57.080Z,100964.78
2022-12-15T22:13:27.527Z,100972.00
2022-12-15T22:15:57.813Z,100976.84
2022-12-15T22:18:28.032Z,100978.63
2022-12-15T22:20:58.450Z,100984.13
2022-12-15T22:23:28.604Z,100987.66
2022-12-15T22:25:59.143Z,100990.63
2022-12-15T22:28:31.167Z,100991.47
2022-12-15T22:31:04.637Z,100993.38
2022-12-15T22:33:34.872Z,100996.13
2022-12-15T22:36:04.891Z,101000.03
2022-12-15T22:38:35.253Z,101006.91
2022-12-15T22:42:25.142Z,100997.78
2022-12-15T22:44:56.241Z,101007.00
2022-12-15T22:47:26.346Z,101003.19
2022-12-15T22:49:56.407Z,101008.84
2022-12-15T22:52:26.604Z,101020.94
2022-12-15T22:54:58.793Z,101014.19
2022-12-15T22:57:30.845Z,101027.19
2022-12-15T23:00:09.572Z,101029.22
2022-12-15T23:02:44.965Z,101025.72
2022-12-15T23:05:18.412Z,101039.69
2022-12-15T23:07:49.617Z,101036.34
2022-12-15T23:10:40.435Z,101036.13
2022-12-15T23:13:10.620Z,101042.44
2022-12-15T23:15:59.177Z,101047.34
2022-12-15T23:18:29.540Z,101046.00
2022-12-15T23:21:00.035Z,101050.91
2022-12-15T23:23:30.746Z,101056.41
2022-12-15T23:26:01.336Z,101061.06
2022-12-15T23:28:31.765Z,101066.03
2022-12-15T23:31:02.510Z,101069.09
2022-12-15T23:33:33.907Z,101083.59
2022-12-15T23:36:05.005Z,101095.97
2022-12-15T23:38:35.333Z,101097.63
2022-12-15T23:41:05.693Z,101096.78
2022-12-15T23:43:36.880Z,101100.09
2022-12-15T23:46:09.035Z,101104.22
2022-12-15T23:48:45.513Z,101108.06
2022-12-15T23:51:20.471Z,101108.88
2022-12-15T23:53:51.647Z,101111.63
2022-12-15T23:56:30.411Z,101113.56
2022-12-15T23:59:01.711Z,101119.34
